Time;durP1;ratioP1;P1;durP2;ratioP2;P2;SDS_P1;SDS_P2;PMS_P1;PMS_P2;Temp;Humidity;BMP_temperature;BMP_pressure;BME280_temperature;BME280_humidity;BME280_pressure;Samples;Min_cycle;Max_cycle;Signal;HPM_P1;HPM_P2
2023/04/28 00:00:27;;;;;;;0.30;0.30;;;17.30;85.90;;;;;;4988504;28;20042;-92
2023/04/28 00:02:52;;;;;;;0.50;0.50;;;17.30;86.20;;;;;;4988525;28;20415;-92
2023/04/28 00:05:18;;;;;;;0.40;0.40;;;17.30;85.90;;;;;;4987491;28;20254;-91
2023/04/28 00:07:45;;;;;;;0.25;0.25;;;17.30;86.80;;;;;;4984819;28;20074;-92
2023/04/28 00:10:11;;;;;;;0.50;0.50;;;17.30;86.10;;;;;;4988245;28;20046;-92
2023/04/28 00:12:36;;;;;;;0.47;0.47;;;17.30;85.90;;;;;;4984825;28;20035;-92
2023/04/28 00:15:02;;;;;;;0.40;0.40;;;17.30;86.30;;;;;;4975936;28;20542;-93
2023/04/28 00:17:28;;;;;;;0.32;0.32;;;17.30;85.60;;;;;;4995010;28;20043;-92
2023/04/28 00:19:53;;;;;;;0.40;0.40;;;17.30;86.10;;;;;;4993659;28;20064;-92
2023/04/28 00:22:19;;;;;;;0.40;0.40;;;17.30;86.50;;;;;;4983306;28;20157;-92
2023/04/28 00:24:44;;;;;;;0.30;0.30;;;17.30;86.20;;;;;;4983611;28;20043;-92
2023/04/28 00:27:10;;;;;;;0.40;0.40;;;17.30;85.60;;;;;;5002104;28;20570;-92
2023/04/28 00:29:36;;;;;;;0.47;0.47;;;17.30;85.80;;;;;;4995911;28;20038;-92
2023/04/28 00:32:01;;;;;;;0.30;0.30;;;17.30;85.40;;;;;;4989054;28;20034;-92
2023/04/28 00:34:28;;;;;;;0.50;0.50;;;17.30;85.90;;;;;;4986714;28;20555;-92
2023/04/28 00:36:54;;;;;;;0.47;0.45;;;17.30;85.50;;;;;;4986614;28;20050;-92
2023/04/28 00:39:21;;;;;;;0.60;0.60;;;17.30;86.20;;;;;;4984902;28;20035;-92
2023/04/28 00:41:47;;;;;;;0.35;0.30;;;17.30;85.50;;;;;;5001207;28;20062;-93
2023/04/28 00:44:12;;;;;;;0.30;0.30;;;17.30;85.80;;;;;;4987825;28;20558;-91
2023/04/28 00:46:39;;;;;;;0.50;0.50;;;17.30;85.60;;;;;;4986026;28;20042;-92
2023/04/28 00:49:04;;;;;;;0.30;0.30;;;17.30;85.70;;;;;;5000998;28;20100;-92
2023/04/28 00:51:32;;;;;;;0.40;0.40;;;17.30;85.80;;;;;;4997492;28;20046;-92
2023/04/28 00:53:58;;;;;;;0.50;0.50;;;17.30;85.70;;;;;;4986982;28;20050;-92
2023/04/28 00:56:26;;;;;;;0.50;0.50;;;17.30;85.90;;;;;;4992280;28;20043;-93
2023/04/28 00:58:52;;;;;;;0.45;0.45;;;17.20;85.50;;;;;;4991336;28;20045;-92
2023/04/28 01:01:18;;;;;;;0.50;0.50;;;17.30;86.10;;;;;;4997193;28;20042;-90
2023/04/28 01:03:43;;;;;;;0.40;0.40;;;17.20;85.90;;;;;;5011660;28;20045;-92
2023/04/28 01:06:09;;;;;;;0.35;0.32;;;17.20;85.50;;;;;;5009665;28;20045;-92
2023/04/28 01:08:36;;;;;;;0.30;0.30;;;17.20;85.90;;;;;;5022973;28;20046;-92
2023/04/28 01:11:01;;;;;;;0.30;0.30;;;17.20;85.50;;;;;;5008706;28;20038;-92
2023/04/28 01:13:27;;;;;;;0.40;0.40;;;17.30;85.60;;;;;;5007614;28;20045;-92
2023/04/28 01:15:54;;;;;;;0.40;0.40;;;17.30;86.00;;;;;;5011263;28;20042;-92
2023/04/28 01:18:19;;;;;;;0.50;0.50;;;17.30;85.20;;;;;;4991324;28;20488;-92
2023/04/28 01:20:45;;;;;;;0.40;0.40;;;17.30;85.30;;;;;;5009718;28;20057;-92
2023/04/28 01:23:12;;;;;;;0.40;0.40;;;17.20;85.10;;;;;;5009778;28;20117;-92
2023/04/28 01:25:38;;;;;;;0.32;0.32;;;17.20;85.70;;;;;;5009517;28;20047;-92
2023/04/28 01:28:04;;;;;;;0.40;0.40;;;17.20;86.30;;;;;;5008686;28;20037;-92
2023/04/28 01:30:29;;;;;;;0.40;0.40;;;17.20;85.10;;;;;;5006849;28;20094;-92
2023/04/28 01:32:55;;;;;;;0.38;0.38;;;17.20;85.70;;;;;;5010646;28;20070;-92
2023/04/28 01:35:20;;;;;;;0.28;0.28;;;17.20;85.20;;;;;;5008388;28;20046;-92
2023/04/28 01:37:46;;;;;;;0.30;0.30;;;17.20;85.10;;;;;;5010439;28;20042;-92
2023/04/28 01:40:12;;;;;;;0.30;0.30;;;17.20;85.30;;;;;;5010547;28;20034;-93
2023/04/28 01:42:37;;;;;;;0.20;0.20;;;17.30;85.10;;;;;;5008959;28;20447;-92
2023/04/28 01:45:04;;;;;;;0.35;0.35;;;17.20;85.30;;;;;;5011771;28;20050;-92
2023/04/28 01:47:30;;;;;;;0.40;0.40;;;17.20;85.50;;;;;;5007970;28;20042;-92
2023/04/28 01:49:55;;;;;;;0.20;0.20;;;17.20;85.20;;;;;;5011129;28;20065;-92
2023/04/28 01:52:23;;;;;;;0.30;0.30;;;17.20;85.10;;;;;;5010025;28;20048;-90
2023/04/28 01:54:49;;;;;;;1.30;0.30;;;17.30;85.10;;;;;;5009146;28;20333;-92
2023/04/28 01:57:15;;;;;;;0.50;0.50;;;17.20;85.10;;;;;;5009438;28;20037;-93
2023/04/28 01:59:40;;;;;;;0.30;0.30;;;17.20;85.10;;;;;;4993349;28;20064;-93
2023/04/28 02:02:06;;;;;;;0.43;0.30;;;17.20;85.20;;;;;;5010911;28;20099;-92
2023/04/28 02:04:31;;;;;;;0.30;0.30;;;17.30;85.20;;;;;;5008700;28;20046;-93
2023/04/28 02:06:57;;;;;;;0.68;0.40;;;17.30;85.20;;;;;;5002040;28;20499;-92
2023/04/28 02:09:23;;;;;;;0.25;0.25;;;17.20;85.20;;;;;;5009612;28;20459;-92
2023/04/28 02:11:49;;;;;;;0.90;0.30;;;17.20;84.90;;;;;;5007912;28;20495;-93
2023/04/28 02:14:14;;;;;;;0.40;0.40;;;17.20;84.90;;;;;;5005061;28;20058;-92
2023/04/28 02:16:40;;;;;;;0.30;0.30;;;17.20;84.70;;;;;;4991570;28;20527;-92
2023/04/28 02:19:05;;;;;;;0.25;0.25;;;17.20;84.90;;;;;;5009993;28;20503;-93
2023/04/28 02:21:31;;;;;;;0.30;0.30;;;17.20;85.70;;;;;;5006820;28;20072;-92
2023/04/28 02:23:57;;;;;;;0.40;0.40;;;17.20;84.80;;;;;;5009812;28;20400;-93
2023/04/28 02:26:23;;;;;;;0.40;0.40;;;17.30;84.90;;;;;;5010669;28;20034;-91
2023/04/28 02:28:48;;;;;;;0.30;0.30;;;17.30;84.80;;;;;;5010248;28;20065;-92
2023/04/28 02:31:14;;;;;;;0.30;0.30;;;17.30;84.90;;;;;;5008578;28;20042;-93
2023/04/28 02:33:41;;;;;;;0.38;0.38;;;17.20;84.70;;;;;;4990779;28;20050;-92
2023/04/28 02:36:07;;;;;;;0.30;0.28;;;17.20;84.80;;;;;;5008272;28;20495;-93
2023/04/28 02:38:33;;;;;;;0.30;0.30;;;17.20;84.80;;;;;;5006144;28;20113;-92
2023/04/28 02:41:03;;;;;;;0.40;0.40;;;17.20;84.80;;;;;;5007337;28;20113;-92
2023/04/28 02:43:29;;;;;;;0.20;0.20;;;17.20;84.80;;;;;;5009476;28;20045;-92
2023/04/28 02:45:55;;;;;;;0.40;0.40;;;17.20;85.60;;;;;;4990119;28;20042;-93
2023/04/28 02:48:21;;;;;;;0.30;0.30;;;17.20;84.70;;;;;;5010601;28;20046;-92
2023/04/28 02:50:46;;;;;;;0.20;0.20;;;17.20;84.80;;;;;;5007919;28;20161;-93
2023/04/28 02:53:12;;;;;;;0.30;0.30;;;17.20;84.70;;;;;;5007580;28;20065;-92
2023/04/28 02:55:38;;;;;;;0.30;0.30;;;17.20;84.70;;;;;;5006668;28;20074;-93
2023/04/28 02:58:03;;;;;;;0.70;0.40;;;17.20;84.60;;;;;;5010283;28;20041;-92
2023/04/28 03:00:29;;;;;;;0.20;0.20;;;17.20;84.70;;;;;;5008092;28;20049;-92
2023/04/28 03:02:54;;;;;;;0.47;0.47;;;17.20;84.70;;;;;;5007214;28;20044;-93
2023/04/28 03:05:20;;;;;;;0.40;0.40;;;17.20;84.70;;;;;;5008165;28;20038;-93
2023/04/28 03:07:46;;;;;;;0.30;0.30;;;17.30;84.70;;;;;;5005549;28;20049;-92
2023/04/28 03:10:11;;;;;;;0.30;0.30;;;17.30;84.60;;;;;;5002997;28;20076;-93
2023/04/28 03:12:37;;;;;;;0.30;0.30;;;17.20;84.80;;;;;;5007236;28;20142;-93
2023/04/28 03:15:03;;;;;;;0.30;0.30;;;17.20;84.70;;;;;;5009289;28;20057;-92
2023/04/28 03:17:28;;;;;;;0.40;0.40;;;17.20;84.60;;;;;;5006769;28;20528;-93
2023/04/28 03:19:54;;;;;;;0.30;0.30;;;17.20;84.70;;;;;;5007980;28;20161;-92
2023/04/28 03:22:19;;;;;;;0.45;0.45;;;17.20;84.70;;;;;;5007024;28;20034;-92
2023/04/28 03:24:45;;;;;;;0.40;0.40;;;17.20;84.70;;;;;;5007610;28;20163;-93
2023/04/28 03:27:11;;;;;;;0.45;0.45;;;17.20;84.70;;;;;;5007725;28;20038;-93
2023/04/28 03:29:36;;;;;;;0.40;0.40;;;17.20;84.60;;;;;;4987703;28;20041;-92
2023/04/28 03:32:02;;;;;;;0.30;0.30;;;17.20;84.50;;;;;;5009206;28;20049;-93
2023/04/28 03:34:27;;;;;;;0.40;0.40;;;17.20;84.50;;;;;;5006553;28;20054;-93
2023/04/28 03:36:53;;;;;;;0.35;0.35;;;17.20;84.50;;;;;;5005555;28;20046;-93
2023/04/28 03:39:19;;;;;;;0.20;0.20;;;17.20;84.40;;;;;;4992354;28;20045;-93
2023/04/28 03:41:44;;;;;;;0.20;0.20;;;17.20;84.40;;;;;;5007650;28;20056;-92
2023/04/28 03:44:10;;;;;;;0.28;0.28;;;17.20;84.40;;;;;;5005200;28;20042;-93
2023/04/28 03:46:35;;;;;;;0.43;0.30;;;17.20;84.50;;;;;;5007574;28;20057;-93
2023/04/28 03:49:01;;;;;;;0.20;0.20;;;17.20;84.50;;;;;;5008900;28;20056;-93
2023/04/28 03:51:28;;;;;;;0.28;0.28;;;17.20;84.40;;;;;;5007951;28;20458;-93
2023/04/28 03:53:54;;;;;;;0.30;0.30;;;17.20;84.40;;;;;;4987408;28;20054;-92
2023/04/28 03:56:19;;;;;;;0.30;0.30;;;17.20;84.40;;;;;;4986938;28;20093;-93
2023/04/28 03:58:45;;;;;;;0.32;0.32;;;17.20;84.40;;;;;;4981055;28;20042;-92
2023/04/28 04:01:11;;;;;;;0.30;0.30;;;17.30;84.40;;;;;;4999967;28;20456;-93
2023/04/28 04:03:36;;;;;;;0.40;0.40;;;17.20;84.40;;;;;;4985255;28;20058;-92
2023/04/28 04:06:02;;;;;;;0.30;0.30;;;17.20;84.40;;;;;;4988745;28;20046;-92
2023/04/28 04:08:28;;;;;;;0.30;0.30;;;17.30;84.40;;;;;;4985666;28;20289;-81
2023/04/28 04:10:54;;;;;;;0.50;0.50;;;17.20;84.40;;;;;;4986538;28;20109;-93
2023/04/28 04:13:21;;;;;;;0.30;0.30;;;17.20;84.50;;;;;;4999862;28;20050;-92
2023/04/28 04:15:46;;;;;;;0.20;0.20;;;17.20;84.60;;;;;;4982037;28;20050;-93
2023/04/28 04:18:13;;;;;;;0.40;0.40;;;17.20;84.60;;;;;;4986198;28;20031;-93
2023/04/28 04:20:39;;;;;;;0.30;0.30;;;17.20;84.60;;;;;;4985284;28;20031;-93
2023/04/28 04:23:04;;;;;;;0.20;0.20;;;17.20;84.60;;;;;;4987417;28;20069;-93
2023/04/28 04:25:31;;;;;;;0.20;0.20;;;17.20;84.50;;;;;;4986431;28;20255;-90
2023/04/28 04:27:56;;;;;;;0.20;0.20;;;17.20;84.70;;;;;;4991072;28;20125;-92
2023/04/28 04:30:22;;;;;;;0.30;0.30;;;17.20;84.80;;;;;;5003640;28;20571;-92
2023/04/28 04:32:47;;;;;;;0.30;0.30;;;17.20;84.70;;;;;;4987508;28;20057;-93
2023/04/28 04:35:13;;;;;;;0.20;0.20;;;17.20;84.80;;;;;;4989685;28;20053;-91
2023/04/28 04:37:39;;;;;;;0.10;0.10;;;17.20;84.70;;;;;;4989530;28;20124;-93
2023/04/28 04:40:05;;;;;;;0.22;0.22;;;17.20;84.60;;;;;;4991973;28;20511;-93
2023/04/28 04:42:31;;;;;;;0.20;0.20;;;17.20;84.40;;;;;;4997062;28;20042;-91
2023/04/28 04:44:57;;;;;;;0.40;0.22;;;17.20;84.40;;;;;;5010743;28;20049;-93
2023/04/28 04:47:22;;;;;;;0.32;0.32;;;17.20;84.50;;;;;;5008543;28;20034;-93
2023/04/28 04:49:49;;;;;;;0.30;0.30;;;17.20;84.50;;;;;;5010924;28;20180;-93
2023/04/28 04:52:14;;;;;;;0.28;0.28;;;17.20;84.50;;;;;;5011562;28;20140;-93
2023/04/28 04:54:40;;;;;;;0.28;0.28;;;17.20;84.60;;;;;;5008396;28;20117;-93
2023/04/28 04:57:05;;;;;;;0.20;0.20;;;17.20;84.50;;;;;;5012398;28;20069;-93
2023/04/28 04:59:31;;;;;;;0.20;0.20;;;17.20;84.60;;;;;;5009272;28;20046;-84
2023/04/28 05:01:57;;;;;;;0.30;0.30;;;17.20;84.60;;;;;;5012451;28;20123;-92
2023/04/28 05:04:22;;;;;;;0.20;0.20;;;17.20;84.50;;;;;;5009242;28;20045;-93
2023/04/28 05:06:48;;;;;;;0.20;0.20;;;17.20;84.50;;;;;;5007875;28;20568;-77
2023/04/28 05:09:14;;;;;;;0.25;0.25;;;17.20;84.60;;;;;;5010677;28;20841;-78
2023/04/28 05:11:40;;;;;;;0.10;0.10;;;17.20;84.60;;;;;;5006861;28;20056;-78
2023/04/28 05:14:05;;;;;;;0.20;0.20;;;17.20;85.30;;;;;;5006235;28;20380;-78
2023/04/28 05:16:31;;;;;;;0.20;0.20;;;17.20;84.60;;;;;;5009143;28;20104;-78
2023/04/28 05:18:56;;;;;;;0.30;0.30;;;17.20;84.60;;;;;;5005181;28;20392;-77
2023/04/28 05:21:22;;;;;;;0.28;0.28;;;17.20;84.60;;;;;;4989730;28;20061;-77
2023/04/28 05:23:48;;;;;;;0.30;0.30;;;17.20;84.50;;;;;;5006619;28;20049;-78
2023/04/28 05:26:13;;;;;;;0.10;0.10;;;17.20;84.40;;;;;;5008964;28;20046;-77
2023/04/28 05:28:40;;;;;;;0.20;0.20;;;17.20;84.40;;;;;;5007387;28;20041;-77
2023/04/28 05:31:06;;;;;;;0.20;0.20;;;17.20;84.40;;;;;;5006515;28;20713;-78
2023/04/28 05:33:31;;;;;;;0.20;0.20;;;17.20;84.40;;;;;;5009294;28;20061;-78
2023/04/28 05:35:57;;;;;;;0.20;0.20;;;17.20;84.40;;;;;;5007737;28;20026;-78
2023/04/28 05:38:22;;;;;;;0.20;0.20;;;17.20;84.50;;;;;;5024007;28;20042;-77
2023/04/28 05:40:48;;;;;;;0.28;0.28;;;17.20;84.50;;;;;;5005563;28;20026;-78
2023/04/28 05:43:13;;;;;;;0.10;0.10;;;17.20;84.60;;;;;;5007866;28;20153;-77
2023/04/28 05:45:39;;;;;;;0.25;0.25;;;17.20;84.70;;;;;;5007852;28;20044;-77
2023/04/28 05:48:05;;;;;;;0.13;0.13;;;17.20;84.60;;;;;;5007352;28;20081;-77
2023/04/28 05:50:31;;;;;;;0.20;0.20;;;17.20;84.60;;;;;;5008298;28;20038;-77
2023/04/28 05:52:56;;;;;;;0.10;0.10;;;17.20;84.60;;;;;;5009039;28;20128;-77
2023/04/28 05:55:22;;;;;;;0.10;0.10;;;17.20;84.60;;;;;;5009303;28;20059;-78
2023/04/28 05:57:48;;;;;;;0.20;0.20;;;17.20;84.60;;;;;;4989560;28;20046;-77
2023/04/28 06:00:13;;;;;;;0.20;0.20;;;17.20;84.60;;;;;;5008044;28;20046;-76
2023/04/28 06:02:39;;;;;;;0.20;0.20;;;17.20;84.60;;;;;;5008010;28;20482;-78
2023/04/28 06:05:05;;;;;;;0.20;0.20;;;17.20;84.70;;;;;;5009391;28;20046;-77
2023/04/28 06:07:31;;;;;;;0.20;0.20;;;17.20;84.70;;;;;;5005280;28;20037;-78
2023/04/28 06:09:56;;;;;;;0.32;0.32;;;17.20;84.80;;;;;;5005239;28;20037;-78
2023/04/28 06:12:22;;;;;;;0.20;0.20;;;17.20;84.80;;;;;;5008542;28;20062;-78
2023/04/28 06:14:47;;;;;;;0.10;0.10;;;17.20;84.80;;;;;;5006600;28;20104;-78
2023/04/28 06:17:13;;;;;;;0.20;0.20;;;17.20;84.80;;;;;;5005189;28;20046;-78
2023/04/28 06:19:38;;;;;;;0.80;0.20;;;17.20;84.80;;;;;;4987589;28;20049;-78
2023/04/28 06:22:04;;;;;;;0.25;0.25;;;17.20;84.80;;;;;;5006286;28;20045;-78
2023/04/28 06:24:30;;;;;;;0.20;0.20;;;17.20;84.80;;;;;;5006316;28;20054;-78
2023/04/28 06:26:56;;;;;;;0.17;0.17;;;17.20;84.80;;;;;;5006057;28;21603;-76
2023/04/28 06:29:22;;;;;;;0.20;0.20;;;17.20;84.80;;;;;;5006027;28;20105;-77
2023/04/28 06:31:48;;;;;;;0.20;0.20;;;17.20;84.80;;;;;;5004314;28;20080;-77
2023/04/28 06:34:14;;;;;;;0.20;0.20;;;17.30;84.80;;;;;;5005915;28;20050;-77
2023/04/28 06:36:39;;;;;;;0.30;0.30;;;17.30;84.90;;;;;;5005803;28;20520;-77
2023/04/28 06:39:05;;;;;;;0.10;0.10;;;17.20;84.90;;;;;;4990207;28;20046;-77
2023/04/28 06:41:31;;;;;;;0.10;0.10;;;17.20;84.90;;;;;;5008691;28;20053;-77
2023/04/28 06:43:56;;;;;;;0.10;0.10;;;17.30;85.00;;;;;;5005463;28;20049;-78
2023/04/28 06:46:22;;;;;;;0.10;0.10;;;17.20;85.00;;;;;;5007373;28;20087;-78
2023/04/28 06:48:47;;;;;;;0.10;0.10;;;17.20;85.00;;;;;;5006012;28;20050;-77
2023/04/28 06:51:13;;;;;;;0.20;0.10;;;17.20;85.00;;;;;;5006799;28;20459;-77
2023/04/28 06:53:39;;;;;;;0.20;0.20;;;17.20;84.90;;;;;;5004691;28;20598;-77
2023/04/28 06:56:05;;;;;;;0.10;0.10;;;17.20;85.00;;;;;;5009372;28;20125;-77
2023/04/28 06:58:31;;;;;;;0.20;0.20;;;17.20;84.90;;;;;;5004697;28;20044;-78
2023/04/28 07:00:56;;;;;;;0.10;0.10;;;17.30;85.00;;;;;;5005874;28;20125;-78
2023/04/28 07:03:22;;;;;;;0.10;0.10;;;17.30;85.10;;;;;;5007330;28;20411;-78
2023/04/28 07:05:47;;;;;;;0.10;0.10;;;17.20;85.00;;;;;;5004071;28;20581;-77
2023/04/28 07:08:13;;;;;;;0.15;0.15;;;17.30;85.10;;;;;;5005829;28;20124;-78
2023/04/28 07:10:39;;;;;;;0.20;0.20;;;17.30;85.10;;;;;;4979214;28;20060;-78
2023/04/28 07:13:04;;;;;;;0.10;0.10;;;17.30;85.00;;;;;;5005989;28;20046;-78
2023/04/28 07:15:30;;;;;;;0.20;0.20;;;17.30;85.00;;;;;;5006170;28;20066;-77
2023/04/28 07:17:56;;;;;;;0.10;0.10;;;17.30;84.90;;;;;;5005638;28;20040;-77
2023/04/28 07:20:21;;;;;;;0.30;0.30;;;17.30;84.80;;;;;;4986547;28;20037;-77
2023/04/28 07:22:47;;;;;;;0.20;0.20;;;17.30;84.80;;;;;;5003460;28;20111;-78
2023/04/28 07:25:12;;;;;;;0.20;0.20;;;17.30;84.80;;;;;;5005533;28;20415;-78
2023/04/28 07:27:38;;;;;;;0.20;0.20;;;17.30;84.80;;;;;;5004403;28;20037;-77
2023/04/28 07:30:04;;;;;;;0.20;0.20;;;17.30;84.80;;;;;;5008885;28;20061;-77
2023/04/28 07:32:30;;;;;;;0.10;0.10;;;17.30;85.10;;;;;;5004527;28;20065;-77
2023/04/28 07:34:55;;;;;;;0.15;0.10;;;17.30;85.10;;;;;;5005627;28;20038;-77
2023/04/28 07:37:22;;;;;;;0.10;0.10;;;17.30;85.00;;;;;;5006853;28;20121;-77
2023/04/28 07:39:47;;;;;;;0.20;0.20;;;17.30;84.80;;;;;;5004349;28;20187;-78
2023/04/28 07:42:13;;;;;;;0.22;0.22;;;17.30;84.80;;;;;;5007047;28;20133;-78
2023/04/28 07:44:38;;;;;;;0.20;0.20;;;17.30;84.80;;;;;;4995836;28;20067;-77
2023/04/28 07:47:04;;;;;;;0.30;0.30;;;17.30;84.80;;;;;;5004909;28;20131;-78
2023/04/28 07:49:30;;;;;;;0.20;0.20;;;17.40;84.80;;;;;;5006560;28;20041;-77
2023/04/28 07:51:56;;;;;;;0.25;0.25;;;17.40;84.90;;;;;;4986582;28;20034;-77
2023/04/28 07:54:21;;;;;;;0.20;0.20;;;17.40;85.00;;;;;;5004572;28;20415;-77
2023/04/28 07:56:47;;;;;;;0.10;0.10;;;17.40;84.90;;;;;;5006043;28;20136;-77
2023/04/28 07:59:13;;;;;;;0.20;0.20;;;17.40;85.00;;;;;;4988218;28;20087;-77
2023/04/28 08:01:39;;;;;;;0.10;0.10;;;17.40;85.00;;;;;;5005321;28;20077;-77
2023/04/28 08:04:04;;;;;;;0.75;0.10;;;17.40;84.90;;;;;;5003501;28;20533;-77
2023/04/28 08:06:30;;;;;;;0.10;0.10;;;17.40;84.80;;;;;;5005054;28;20046;-77
2023/04/28 08:08:55;;;;;;;0.10;0.10;;;17.40;84.90;;;;;;4986805;28;20626;-77
2023/04/28 08:11:21;;;;;;;0.10;0.10;;;17.40;84.80;;;;;;5004918;28;20041;-78
2023/04/28 08:13:47;;;;;;;0.10;0.10;;;17.40;84.90;;;;;;5005435;28;20049;-78
2023/04/28 08:16:13;;;;;;;0.10;0.10;;;17.40;84.90;;;;;;5005228;28;20073;-77
2023/04/28 08:18:39;;;;;;;0.08;0.08;;;17.40;84.90;;;;;;5004367;28;20077;-77
2023/04/28 08:21:05;;;;;;;0.10;0.10;;;17.40;84.80;;;;;;4986882;28;20038;-78
2023/04/28 08:23:30;;;;;;;0.10;0.10;;;17.40;84.90;;;;;;5005478;28;20069;-78
2023/04/28 08:25:56;;;;;;;0.20;0.20;;;17.40;84.90;;;;;;4986315;28;20459;-77
2023/04/28 08:28:22;;;;;;;0.10;0.10;;;17.40;84.90;;;;;;4984915;28;20117;-78
2023/04/28 08:30:48;;;;;;;0.13;0.13;;;17.50;85.00;;;;;;4984174;28;20053;-77
2023/04/28 08:33:13;;;;;;;0.10;0.10;;;17.50;85.10;;;;;;4987002;28;20108;-77
2023/04/28 08:35:39;;;;;;;0.13;0.10;;;17.50;85.00;;;;;;4985337;28;20058;-77
2023/04/28 08:38:06;;;;;;;0.10;0.10;;;17.50;85.10;;;;;;4982589;28;20050;-78
2023/04/28 08:40:31;;;;;;;0.10;0.10;;;17.50;85.10;;;;;;4988627;28;20042;-77
2023/04/28 08:42:58;;;;;;;0.10;0.10;;;17.50;85.00;;;;;;4987308;28;20053;-78
2023/04/28 08:45:24;;;;;;;0.10;0.10;;;17.50;85.00;;;;;;4983299;28;20046;-78
2023/04/28 08:47:50;;;;;;;0.10;0.10;;;17.60;84.90;;;;;;5016094;28;20411;-77
2023/04/28 08:50:16;;;;;;;0.10;0.10;;;17.60;84.90;;;;;;4973885;28;20046;-78
2023/04/28 08:52:42;;;;;;;0.52;0.30;;;17.60;84.60;;;;;;4952949;28;20476;-78
2023/04/28 08:55:15;;;;;;;0.17;0.17;;;17.60;84.70;;;;;;4985796;28;21324;-77
2023/04/28 08:57:50;;;;;;;0.13;0.13;;;17.60;84.80;;;;;;4982242;28;20578;-77
2023/04/28 09:00:16;;;;;;;0.10;0.10;;;17.60;84.90;;;;;;5002928;28;20120;-77
2023/04/28 09:02:42;;;;;;;0.10;0.10;;;17.60;84.90;;;;;;5005638;28;20191;-77
2023/04/28 09:05:08;;;;;;;0.20;0.20;;;17.60;85.00;;;;;;5003594;28;20515;-77
2023/04/28 09:07:35;;;;;;;0.17;0.17;;;17.60;84.80;;;;;;5019736;28;20046;-77
2023/04/28 09:10:27;;;;;;;0.17;0.17;;;17.60;84.80;;;;;;5003529;28;20046;-77
2023/04/28 09:12:54;;;;;;;0.10;0.10;;;17.60;84.70;;;;;;5003029;28;20129;-77
2023/04/28 09:15:41;;;;;;;0.03;0.03;;;17.60;84.70;;;;;;5007300;28;20536;-77
2023/04/28 09:18:06;;;;;;;0.10;0.10;;;17.60;84.80;;;;;;5007227;28;20469;-77
2023/04/28 09:20:33;;;;;;;0.20;0.13;;;17.60;85.60;;;;;;5007005;28;20130;-77
2023/04/28 09:23:29;;;;;;;0.10;0.10;;;17.60;84.80;;;;;;5009080;28;20391;-78
2023/04/28 09:25:57;;;;;;;0.10;0.10;;;17.60;84.90;;;;;;5011271;28;20034;-77
2023/04/28 09:28:22;;;;;;;0.10;0.10;;;17.60;85.00;;;;;;5007041;28;20046;-78
2023/04/28 09:30:48;;;;;;;0.10;0.10;;;17.60;85.00;;;;;;5006137;28;20104;-78
2023/04/28 09:33:14;;;;;;;0.15;0.15;;;17.60;85.10;;;;;;4992283;28;20052;-77
2023/04/28 09:35:41;;;;;;;0.10;0.10;;;17.50;84.90;;;;;;4991756;28;20134;-77
2023/04/28 09:38:07;;;;;;;0.20;0.20;;;17.60;84.90;;;;;;5005308;28;20511;-77
2023/04/28 09:40:33;;;;;;;0.10;0.10;;;17.60;84.90;;;;;;4995684;28;20044;-77
2023/04/28 09:42:58;;;;;;;0.10;0.10;;;17.60;84.70;;;;;;4996846;28;20085;-77
2023/04/28 09:45:25;;;;;;;0.13;0.10;;;17.60;84.70;;;;;;4991191;28;20050;-77
2023/04/28 09:47:51;;;;;;;0.10;0.10;;;17.60;84.70;;;;;;4987461;28;20096;-77
2023/04/28 09:50:17;;;;;;;2.00;0.20;;;17.60;84.60;;;;;;5002536;28;20034;-78
2023/04/28 09:52:56;;;;;;;0.28;0.28;;;17.60;84.70;;;;;;4988331;28;20049;-77
2023/04/28 09:55:22;;;;;;;0.00;0.00;;;17.60;84.70;;;;;;4983891;28;20252;-78
2023/04/28 09:57:48;;;;;;;0.00;0.00;;;17.60;84.50;;;;;;4985077;28;20070;-78
2023/04/28 10:00:13;;;;;;;0.00;0.00;;;17.70;85.20;;;;;;4975076;28;20450;-76
2023/04/28 10:02:39;;;;;;;0.03;0.03;;;17.60;84.50;;;;;;4991477;28;20126;-77
2023/04/28 10:05:07;;;;;;;0.00;0.00;;;17.70;84.60;;;;;;4955550;28;20061;-77
2023/04/28 10:07:34;;;;;;;0.10;0.10;;;17.60;84.40;;;;;;4966942;28;20039;-78
2023/04/28 10:10:00;;;;;;;0.08;0.08;;;17.70;84.40;;;;;;4971274;28;20504;-78
2023/04/28 10:12:26;;;;;;;0.10;0.10;;;17.70;84.30;;;;;;4970427;28;20041;-77
2023/04/28 10:14:53;;;;;;;0.10;0.00;;;17.70;84.40;;;;;;4968944;28;20047;-77
2023/04/28 10:17:24;;;;;;;0.10;0.10;;;17.70;84.50;;;;;;4983162;28;20578;-76
2023/04/28 10:19:51;;;;;;;0.00;0.00;;;17.70;84.50;;;;;;4970308;28;20104;-78
2023/04/28 10:22:54;;;;;;;0.10;0.10;;;17.70;84.70;;;;;;4966541;28;20046;-77
2023/04/28 10:25:27;;;;;;;0.10;0.10;;;17.70;84.50;;;;;;5005619;28;20044;-77
2023/04/28 10:27:53;;;;;;;0.13;0.13;;;17.70;84.60;;;;;;5004785;28;20117;-77
2023/04/28 10:30:20;;;;;;;0.20;0.20;;;17.70;84.60;;;;;;4990374;28;20547;-77
2023/04/28 10:32:46;;;;;;;0.10;0.10;;;17.70;84.80;;;;;;5007476;28;20151;-77
2023/04/28 10:35:24;;;;;;;0.05;0.05;;;17.70;84.60;;;;;;5007063;28;20057;-78
2023/04/28 10:38:12;;;;;;;0.17;0.17;;;17.70;84.50;;;;;;5007549;28;20026;-77
2023/04/28 10:40:42;;;;;;;0.10;0.10;;;17.70;84.30;;;;;;5005289;28;20542;-77
2023/04/28 10:43:08;;;;;;;0.10;0.10;;;17.70;84.40;;;;;;5008237;28;20038;-78
2023/04/28 10:45:55;;;;;;;0.00;0.00;;;17.70;84.40;;;;;;5004661;28;20153;-77
2023/04/28 10:48:32;;;;;;;0.05;0.05;;;17.70;84.40;;;;;;5007698;28;20080;-78
2023/04/28 10:53:44;;;;;;;0.15;0.08;;;17.80;84.80;;;;;;5006730;28;20038;-77
2023/04/28 10:56:17;;;;;;;0.20;0.20;;;17.70;84.40;;;;;;5004517;28;20034;-78
2023/04/28 10:58:45;;;;;;;0.08;0.08;;;17.80;84.50;;;;;;5004417;28;20488;-77
2023/04/28 11:01:27;;;;;;;0.10;0.03;;;17.80;84.60;;;;;;5005940;28;20076;-77
2023/04/28 11:03:59;;;;;;;0.28;0.10;;;17.80;84.40;;;;;;5008592;28;20045;-77
2023/04/28 11:06:28;;;;;;;0.03;0.03;;;17.80;84.40;;;;;;5004886;28;20403;-77
2023/04/28 11:08:56;;;;;;;0.10;0.10;;;17.90;84.30;;;;;;4984599;28;20030;-77
2023/04/28 11:11:24;;;;;;;0.10;0.10;;;17.80;84.30;;;;;;4995271;28;20050;-77
2023/04/28 11:13:50;;;;;;;0.00;0.00;;;17.80;84.40;;;;;;4999925;28;20142;-77
2023/04/28 11:16:17;;;;;;;0.10;0.10;;;17.80;84.40;;;;;;4985622;28;20126;-76
2023/04/28 11:18:43;;;;;;;0.10;0.10;;;17.80;84.30;;;;;;4983940;28;20034;-77
2023/04/28 11:21:08;;;;;;;0.03;0.03;;;17.80;84.30;;;;;;4987190;28;20554;-77
2023/04/28 11:23:34;;;;;;;0.10;0.10;;;17.80;84.30;;;;;;4996189;28;20448;-77
2023/04/28 11:25:59;;;;;;;0.10;0.10;;;17.80;84.30;;;;;;4994579;28;20053;-77
2023/04/28 11:28:25;;;;;;;0.10;0.00;;;17.80;83.90;;;;;;4985780;28;20030;-77
2023/04/28 11:30:51;;;;;;;0.10;0.10;;;17.80;84.10;;;;;;4986390;28;20407;-77
2023/04/28 11:33:16;;;;;;;0.05;0.05;;;17.80;84.30;;;;;;4984784;28;20045;-77
2023/04/28 11:35:42;;;;;;;0.10;0.10;;;17.80;84.40;;;;;;4983769;28;20058;-77
2023/04/28 11:38:08;;;;;;;0.10;0.10;;;17.80;84.40;;;;;;4983925;28;20038;-77
2023/04/28 11:40:34;;;;;;;0.17;0.17;;;17.80;84.00;;;;;;4985374;28;20525;-77
2023/04/28 11:43:00;;;;;;;0.10;0.10;;;17.80;84.00;;;;;;4998525;28;20046;-77
2023/04/28 11:45:26;;;;;;;0.00;0.00;;;17.80;84.00;;;;;;4987692;28;20039;-77
2023/04/28 11:47:51;;;;;;;0.00;0.00;;;17.90;83.90;;;;;;4983934;28;20065;-77
2023/04/28 11:50:33;;;;;;;0.00;0.00;;;17.90;83.80;;;;;;4983004;28;20484;-77
2023/04/28 11:52:59;;;;;;;0.10;0.10;;;17.90;83.90;;;;;;4995390;28;20050;-77
2023/04/28 11:55:27;;;;;;;0.00;0.00;;;17.90;83.80;;;;;;4998602;28;20286;-77
2023/04/28 11:58:20;;;;;;;0.10;0.10;;;17.90;83.80;;;;;;4987325;28;20492;-77
2023/04/28 12:01:04;;;;;;;0.10;0.10;;;17.90;83.80;;;;;;5014284;28;20031;-77
2023/04/28 12:03:30;;;;;;;0.10;0.10;;;18.00;83.80;;;;;;5002932;28;20045;-77
2023/04/28 12:05:56;;;;;;;0.10;0.10;;;18.00;83.90;;;;;;5005283;28;20053;-77
2023/04/28 12:08:28;;;;;;;0.00;0.00;;;17.90;84.00;;;;;;4984515;28;20054;-77
2023/04/28 12:11:09;;;;;;;0.00;0.00;;;17.90;84.20;;;;;;4981656;28;20046;-77
2023/04/28 12:13:37;;;;;;;0.08;0.08;;;17.90;84.20;;;;;;4984078;28;20055;-77
2023/04/28 12:16:06;;;;;;;0.10;0.10;;;17.90;84.20;;;;;;4972306;28;20145;-77
2023/04/28 12:18:32;;;;;;;0.20;0.10;;;17.90;84.30;;;;;;4985453;28;20058;-77
2023/04/28 12:20:59;;;;;;;0.10;0.10;;;17.90;84.30;;;;;;4968181;28;20120;-77
2023/04/28 12:23:31;;;;;;;0.00;0.00;;;17.90;84.30;;;;;;4989118;28;20057;-77
2023/04/28 12:25:57;;;;;;;0.10;0.10;;;17.90;84.40;;;;;;4993896;28;20042;-77
2023/04/28 12:28:23;;;;;;;0.10;0.10;;;17.90;84.30;;;;;;5003722;28;20400;-77
2023/04/28 12:30:49;;;;;;;0.00;0.00;;;17.90;84.20;;;;;;5004386;28;20050;-77
2023/04/28 12:33:24;;;;;;;0.10;0.10;;;18.00;84.10;;;;;;4985596;28;20038;-77
2023/04/28 12:35:49;;;;;;;0.10;0.10;;;18.00;84.20;;;;;;5002089;28;20053;-77
2023/04/28 12:38:15;;;;;;;0.10;0.10;;;17.90;84.10;;;;;;4991655;28;20027;-77
2023/04/28 12:40:41;;;;;;;0.10;0.10;;;17.90;84.20;;;;;;4984240;28;20050;-77
2023/04/28 12:43:07;;;;;;;0.10;0.10;;;17.90;84.20;;;;;;4989434;28;20068;-77
2023/04/28 12:45:33;;;;;;;0.08;0.05;;;17.90;84.20;;;;;;4988648;28;20053;-77
2023/04/28 12:47:59;;;;;;;0.10;0.00;;;17.90;83.90;;;;;;4990304;28;20049;-77